Time;durP1;ratioP1;P1;durP2;ratioP2;P2;SDS_P1;SDS_P2;PMS_P1;PMS_P2;Temp;Humidity;BMP_temperature;BMP_pressure;BME280_temperature;BME280_humidity;BME280_pressure;Samples;Min_cycle;Max_cycle;Signal;HPM_P1;HPM_P2
2022/10/26 00:00:42;;;;;;;31.48;9.82;;;;;;;10.96;100.00;101259.19;5055376;28;20038;-80
2022/10/26 00:03:08;;;;;;;21.40;9.45;;;;;;;10.95;100.00;101258.34;5056694;28;20097;-81
2022/10/26 00:05:34;;;;;;;26.65;9.55;;;;;;;10.95;100.00;101249.41;5039796;28;20037;-80
2022/10/26 00:08:00;;;;;;;23.00;9.68;;;;;;;10.95;100.00;101252.09;5055669;28;20049;-81
2022/10/26 00:10:26;;;;;;;20.63;9.30;;;;;;;10.99;100.00;101250.75;5054234;28;20364;-82
2022/10/26 00:12:51;;;;;;;20.23;8.50;;;;;;;10.98;100.00;101246.38;5055163;28;20017;-81
2022/10/26 00:15:18;;;;;;;37.08;9.65;;;;;;;10.95;100.00;101242.19;5056682;28;20032;-80
2022/10/26 00:17:44;;;;;;;24.90;9.77;;;;;;;10.96;100.00;101229.56;5057580;28;20033;-80
2022/10/26 00:20:11;;;;;;;20.40;9.93;;;;;;;10.96;100.00;101238.47;5057904;28;20030;-80
2022/10/26 00:22:36;;;;;;;27.92;8.95;;;;;;;10.94;100.00;101229.72;5056685;28;20044;-80
2022/10/26 00:25:02;;;;;;;23.73;9.60;;;;;;;10.93;100.00;101227.22;5057429;28;20056;-80
2022/10/26 00:27:27;;;;;;;20.65;9.85;;;;;;;10.92;100.00;101218.28;5055604;28;20029;-80
2022/10/26 00:29:53;;;;;;;22.65;8.57;;;;;;;10.92;100.00;101226.34;5056896;28;20100;-80
2022/10/26 00:32:18;;;;;;;23.08;9.10;;;;;;;10.91;100.00;101219.31;5057401;28;20037;-80
2022/10/26 00:34:43;;;;;;;16.35;9.07;;;;;;;10.93;100.00;101216.44;5057375;28;20044;-79
2022/10/26 00:37:09;;;;;;;26.23;11.35;;;;;;;10.93;100.00;101216.44;5057311;28;20040;-80
2022/10/26 00:39:34;;;;;;;26.05;9.88;;;;;;;10.92;100.00;101215.56;5056568;28;20026;-80
2022/10/26 00:41:59;;;;;;;27.60;9.77;;;;;;;10.95;100.00;101214.38;5056635;28;20029;-79
2022/10/26 00:44:46;;;;;;;24.33;9.27;;;;;;;10.95;100.00;101209.00;5056859;28;20094;-79
2022/10/26 00:47:14;;;;;;;18.65;9.07;;;;;;;10.97;100.00;101215.06;5056435;28;20051;-80
2022/10/26 00:49:40;;;;;;;20.55;9.65;;;;;;;10.98;100.00;101214.06;5056011;28;20093;-80
2022/10/26 00:52:06;;;;;;;22.98;10.02;;;;;;;10.96;100.00;101216.09;5056862;28;20029;-80
2022/10/26 00:54:32;;;;;;;25.23;10.38;;;;;;;10.96;100.00;101213.41;5056267;28;20033;-80
2022/10/26 00:56:58;;;;;;;33.35;9.73;;;;;;;10.97;100.00;101212.38;5056674;28;20017;-80
2022/10/26 00:59:23;;;;;;;29.77;10.27;;;;;;;10.94;100.00;101210.88;5039247;28;20056;-80
2022/10/26 01:01:50;;;;;;;22.88;9.95;;;;;;;10.93;100.00;101211.88;5055636;28;20021;-81
2022/10/26 01:04:15;;;;;;;21.63;10.13;;;;;;;10.99;100.00;101210.34;5051826;28;20028;-81
2022/10/26 01:06:41;;;;;;;17.60;9.35;;;;;;;10.99;100.00;101204.97;5055155;28;20105;-81
2022/10/26 01:09:07;;;;;;;20.40;9.02;;;;;;;11.02;100.00;101201.06;5055102;28;20089;-81
2022/10/26 01:11:32;;;;;;;26.10;9.45;;;;;;;11.04;100.00;101199.06;5042784;28;20044;-82
2022/10/26 01:13:58;;;;;;;24.75;9.18;;;;;;;11.02;100.00;101193.00;5045803;28;20036;-80
2022/10/26 01:16:56;;;;;;;26.48;9.43;;;;;;;11.01;100.00;101197.56;5045475;28;20043;-80
2022/10/26 01:19:33;;;;;;;21.40;9.18;;;;;;;11.08;100.00;101193.13;5000772;28;20137;-81
2022/10/26 01:22:10;;;;;;;22.80;9.20;;;;;;;11.12;100.00;101185.53;5034004;28;20067;-81
2022/10/26 01:24:50;;;;;;;18.23;8.47;;;;;;;11.16;100.00;101189.53;5032982;28;20026;-80
2022/10/26 01:27:23;;;;;;;21.65;8.90;;;;;;;11.17;100.00;101173.22;5052943;28;20285;-81
2022/10/26 01:30:12;;;;;;;22.67;8.88;;;;;;;11.19;100.00;101170.34;5054435;28;20040;-82
2022/10/26 01:33:06;;;;;;;19.92;8.77;;;;;;;11.14;100.00;101173.56;5050450;28;20085;-79
2022/10/26 01:35:37;;;;;;;20.75;9.07;;;;;;;11.13;100.00;101163.78;4998291;28;20185;-80
2022/10/26 01:38:21;;;;;;;17.30;8.13;;;;;;;11.15;100.00;101172.53;5047709;28;20122;-81
2022/10/26 01:41:12;;;;;;;19.75;7.70;;;;;;;11.07;100.00;101169.06;5048779;28;20022;-81
2022/10/26 01:43:42;;;;;;;23.90;8.43;;;;;;;11.01;100.00;101167.94;5051694;28;20030;-80
2022/10/26 01:46:08;;;;;;;17.35;7.55;;;;;;;11.01;100.00;101162.53;5054881;28;20024;-80
2022/10/26 01:48:35;;;;;;;17.75;7.70;;;;;;;11.03;100.00;101163.16;5053348;28;20025;-80
2022/10/26 01:51:03;;;;;;;28.55;7.90;;;;;;;11.01;100.00;101159.84;5053074;28;20090;-82
2022/10/26 01:53:29;;;;;;;18.45;7.57;;;;;;;11.02;100.00;101161.50;5052649;28;20045;-79
2022/10/26 01:55:55;;;;;;;21.45;8.00;;;;;;;11.00;100.00;101163.53;5054383;28;20052;-80
2022/10/26 01:58:43;;;;;;;22.27;8.30;;;;;;;11.02;100.00;101160.69;5052457;28;20033;-82
2022/10/26 02:01:24;;;;;;;15.68;7.38;;;;;;;11.03;100.00;101152.41;5050954;28;20024;-81
2022/10/26 02:03:50;;;;;;;30.33;8.40;;;;;;;11.03;100.00;101147.00;5051676;28;20067;-81
2022/10/26 02:06:29;;;;;;;22.02;8.45;;;;;;;11.12;100.00;101132.50;5047393;28;20026;-80
2022/10/26 02:09:10;;;;;;;17.67;7.72;;;;;;;11.09;100.00;101140.09;5032247;28;20049;-81
2022/10/26 02:11:42;;;;;;;24.80;7.80;;;;;;;11.06;100.00;101149.38;5061526;28;20069;-80
2022/10/26 02:14:29;;;;;;;20.05;8.73;;;;;;;11.02;100.00;101134.56;5036162;28;20037;-81
2022/10/26 02:17:09;;;;;;;18.55;8.32;;;;;;;10.98;100.00;101141.34;5053386;28;20029;-82
2022/10/26 02:19:58;;;;;;;26.08;7.97;;;;;;;10.94;100.00;101148.94;5051099;28;20052;-82
2022/10/26 02:22:39;;;;;;;18.17;8.57;;;;;;;10.92;100.00;101144.72;5043135;28;20061;-81
2022/10/26 02:25:08;;;;;;;15.18;8.90;;;;;;;10.89;100.00;101151.31;5030353;28;20039;-83
2022/10/26 02:27:37;;;;;;;18.38;8.25;;;;;;;10.86;100.00;101150.84;5045937;28;20041;-82
2022/10/26 02:30:04;;;;;;;22.50;9.20;;;;;;;10.82;100.00;101144.09;5051580;28;20491;-82
2022/10/26 02:32:32;;;;;;;22.55;8.18;;;;;;;10.79;100.00;101147.16;5038490;28;20025;-81
2022/10/26 02:34:59;;;;;;;27.02;8.60;;;;;;;10.74;100.00;101144.97;5049502;28;20452;-82
2022/10/26 02:37:25;;;;;;;19.27;8.82;;;;;;;10.71;100.00;101143.47;5049751;28;20073;-80
2022/10/26 02:39:51;;;;;;;20.15;8.27;;;;;;;10.68;100.00;101137.63;5058476;28;20017;-80
2022/10/26 02:42:17;;;;;;;28.45;8.50;;;;;;;10.66;100.00;101139.63;5058834;28;20048;-80
2022/10/26 02:44:59;;;;;;;19.50;8.50;;;;;;;10.66;100.00;101139.63;5058452;28;20045;-79
2022/10/26 02:47:25;;;;;;;28.42;8.02;;;;;;;10.63;100.00;101140.84;5056954;28;20053;-82
2022/10/26 02:49:52;;;;;;;22.52;8.15;;;;;;;10.63;100.00;101140.00;5052381;28;20057;-82
2022/10/26 02:52:23;;;;;;;33.55;9.57;;;;;;;10.66;100.00;101136.94;5052444;28;20037;-80
2022/10/26 02:54:54;;;;;;;25.17;8.40;;;;;;;10.65;100.00;101137.97;5057017;28;20043;-81
2022/10/26 02:57:25;;;;;;;20.73;8.20;;;;;;;10.66;100.00;101128.88;5050847;28;20029;-80
2022/10/26 02:59:51;;;;;;;25.80;9.70;;;;;;;10.67;100.00;101131.41;5052284;28;20041;-81
2022/10/26 03:02:18;;;;;;;24.98;8.55;;;;;;;10.65;100.00;101130.72;5050067;28;20026;-81
2022/10/26 03:04:43;;;;;;;19.65;8.02;;;;;;;10.67;100.00;101128.72;5039577;28;20077;-78
2022/10/26 03:07:09;;;;;;;25.23;9.05;;;;;;;10.65;100.00;101128.03;5052006;28;20046;-81
2022/10/26 03:09:34;;;;;;;20.40;8.88;;;;;;;10.65;100.00;101119.97;5046776;28;20033;-82
2022/10/26 03:12:00;;;;;;;18.58;8.10;;;;;;;10.66;100.00;101123.50;5046623;28;20422;-80
2022/10/26 03:14:25;;;;;;;22.35;8.70;;;;;;;10.66;100.00;101127.00;5049442;28;20128;-81
2022/10/26 03:16:51;;;;;;;23.95;8.88;;;;;;;10.67;100.00;101109.88;5050124;28;20025;-79
2022/10/26 03:19:16;;;;;;;19.13;8.75;;;;;;;10.68;100.00;101119.59;5050514;28;20540;-80
2022/10/26 03:21:41;;;;;;;16.52;8.70;;;;;;;10.70;100.00;101114.06;5054851;28;20018;-80
2022/10/26 03:24:08;;;;;;;17.40;8.43;;;;;;;10.72;100.00;101117.44;5053267;28;20030;-79
2022/10/26 03:26:33;;;;;;;25.17;8.80;;;;;;;10.72;100.00;101112.88;5051686;28;20079;-80
2022/10/26 03:28:59;;;;;;;23.23;9.25;;;;;;;10.77;100.00;101110.50;5049683;28;20033;-79
2022/10/26 03:31:24;;;;;;;17.70;8.63;;;;;;;10.73;100.00;101114.53;5046581;28;20045;-81
2022/10/26 03:33:49;;;;;;;25.17;8.55;;;;;;;10.78;100.00;101114.00;5046886;28;20025;-80
2022/10/26 03:36:15;;;;;;;27.05;8.80;;;;;;;10.82;100.00;101101.03;5045352;28;20064;-81
2022/10/26 03:38:40;;;;;;;22.27;8.73;;;;;;;10.80;100.00;101109.31;5047834;28;20029;-80
2022/10/26 03:41:05;;;;;;;19.92;8.45;;;;;;;10.80;100.00;101105.78;5048020;28;20068;-81
2022/10/26 03:43:31;;;;;;;21.33;9.15;;;;;;;10.77;100.00;101107.81;5047607;28;20026;-81
2022/10/26 03:45:56;;;;;;;19.60;8.57;;;;;;;10.76;100.00;101111.50;5048955;28;20056;-81
2022/10/26 03:48:21;;;;;;;18.60;8.05;;;;;;;10.82;100.00;101106.41;5052945;28;20029;-80
2022/10/26 03:50:47;;;;;;;21.58;8.73;;;;;;;10.83;100.00;101105.41;5041572;28;20029;-80
2022/10/26 03:53:12;;;;;;;21.65;8.43;;;;;;;10.80;100.00;101103.09;5042083;28;20083;-81
2022/10/26 03:55:38;;;;;;;18.30;8.57;;;;;;;10.83;100.00;101106.25;5048115;28;20060;-79
2022/10/26 03:58:03;;;;;;;24.33;8.63;;;;;;;10.83;100.00;101103.56;5052334;28;20040;-81
2022/10/26 04:00:28;;;;;;;19.10;8.30;;;;;;;10.84;100.00;101097.16;5051659;28;20049;-80
2022/10/26 04:02:56;;;;;;;20.08;8.25;;;;;;;10.86;100.00;101099.66;5051504;28;20048;-80
2022/10/26 04:05:23;;;;;;;20.80;7.50;;;;;;;10.88;100.00;101089.56;5053800;28;20037;-80
2022/10/26 04:07:59;;;;;;;24.10;8.18;;;;;;;10.92;100.00;101096.25;5051975;28;20042;-80
2022/10/26 04:10:26;;;;;;;26.42;9.27;;;;;;;10.92;100.00;101093.56;5053628;28;20041;-80
2022/10/26 04:12:52;;;;;;;25.20;9.85;;;;;;;10.92;100.00;101093.56;5050546;28;20057;-80
2022/10/26 04:15:17;;;;;;;24.23;8.30;;;;;;;10.96;100.00;101094.91;5051026;28;20029;-80
2022/10/26 04:17:43;;;;;;;30.15;8.85;;;;;;;10.98;100.00;101100.97;5051834;28;20029;-79
2022/10/26 04:20:09;;;;;;;15.48;7.95;;;;;;;11.00;100.00;101098.91;5052021;28;20044;-80
2022/10/26 04:22:35;;;;;;;19.27;8.88;;;;;;;11.01;100.00;101100.59;5049701;28;20033;-81
2022/10/26 04:25:01;;;;;;;17.88;7.50;;;;;;;11.02;100.00;101102.25;5050107;28;20072;-80
2022/10/26 04:27:27;;;;;;;21.10;9.15;;;;;;;11.06;100.00;101108.97;5051270;28;20041;-79
2022/10/26 04:29:53;;;;;;;18.65;8.50;;;;;;;11.09;100.00;101103.22;5047585;28;20033;-79
2022/10/26 04:32:19;;;;;;;19.80;7.85;;;;;;;11.12;100.00;101100.16;5046371;28;20042;-79
2022/10/26 04:34:44;;;;;;;17.77;8.75;;;;;;;11.13;100.00;101104.53;5045987;28;20037;-79
2022/10/26 04:37:10;;;;;;;24.02;7.95;;;;;;;11.17;100.00;101103.16;5048613;28;20057;-82
2022/10/26 04:39:35;;;;;;;30.75;8.73;;;;;;;11.19;100.00;101103.00;5049293;28;20112;-80
2022/10/26 04:42:00;;;;;;;20.08;8.15;;;;;;;11.20;100.00;101094.72;5047979;28;20013;-80
2022/10/26 04:44:26;;;;;;;19.98;7.50;;;;;;;11.23;100.00;101093.53;5021723;28;20025;-78
2022/10/26 04:46:51;;;;;;;22.38;7.70;;;;;;;11.25;100.00;101096.06;5041301;28;20136;-79
2022/10/26 04:49:16;;;;;;;17.67;7.85;;;;;;;11.27;100.00;101089.47;5034046;28;20066;-79
2022/10/26 04:51:42;;;;;;;30.45;10.27;;;;;;;11.33;100.00;101098.69;5018989;28;20034;-80
2022/10/26 04:54:07;;;;;;;19.80;7.57;;;;;;;11.33;100.00;101098.69;5036801;28;20098;-81
2022/10/26 04:56:33;;;;;;;27.70;7.93;;;;;;;11.36;100.00;101099.16;5043840;28;20040;-81
2022/10/26 04:58:58;;;;;;;20.15;8.05;;;;;;;11.39;100.00;101092.56;5043345;28;20098;-80
2022/10/26 05:01:24;;;;;;;17.63;7.70;;;;;;;11.46;100.00;101098.91;5024846;28;20037;-81
2022/10/26 05:03:51;;;;;;;27.33;9.02;;;;;;;11.47;100.00;101099.75;5041465;28;20052;-81
2022/10/26 05:06:16;;;;;;;18.75;7.85;;;;;;;11.48;100.00;101085.22;5035738;28;20056;-84
2022/10/26 05:08:42;;;;;;;17.17;7.75;;;;;;;11.47;100.00;101091.66;5038790;28;20064;-80
2022/10/26 05:11:07;;;;;;;17.70;7.65;;;;;;;11.46;100.00;101081.91;5041629;28;20021;-81
2022/10/26 05:13:32;;;;;;;25.42;7.72;;;;;;;11.45;100.00;101086.44;5036648;28;20037;-81
2022/10/26 05:15:58;;;;;;;19.23;7.85;;;;;;;11.45;100.00;101091.81;5037485;28;20076;-79
2022/10/26 05:18:25;;;;;;;24.23;7.72;;;;;;;11.49;100.00;101095.84;5039282;28;20025;-81
2022/10/26 05:20:54;;;;;;;23.20;7.40;;;;;;;11.43;100.00;101094.72;5040456;28;20033;-81
2022/10/26 05:23:20;;;;;;;23.27;8.07;;;;;;;11.47;100.00;101105.97;5040167;28;20744;-81
2022/10/26 05:25:45;;;;;;;17.73;7.35;;;;;;;11.49;100.00;101095.84;5039388;28;20047;-80
2022/10/26 05:28:12;;;;;;;19.40;7.25;;;;;;;11.51;100.00;101098.38;5048305;28;20025;-80
2022/10/26 05:30:41;;;;;;;18.35;7.60;;;;;;;11.51;100.00;101096.50;5033631;28;20028;-80
2022/10/26 05:33:08;;;;;;;14.55;6.82;;;;;;;11.58;100.00;101086.66;5036055;28;20031;-81
2022/10/26 05:35:33;;;;;;;15.25;6.93;;;;;;;11.59;100.00;101088.34;5033503;28;20059;-80
2022/10/26 05:37:59;;;;;;;17.88;6.93;;;;;;;11.60;100.00;101084.63;5034454;28;20093;-79
2022/10/26 05:40:24;;;;;;;18.80;6.30;;;;;;;11.59;100.00;101077.56;5037026;28;20037;-80
2022/10/26 05:42:50;;;;;;;18.73;6.75;;;;;;;11.64;100.00;101080.53;5041353;28;20821;-79
2022/10/26 05:45:17;;;;;;;17.45;6.63;;;;;;;11.67;100.00;101084.72;5043601;28;20021;-81
2022/10/26 05:47:43;;;;;;;13.35;5.80;;;;;;;11.69;100.00;101079.13;5040848;28;20036;-81
2022/10/26 05:50:09;;;;;;;21.88;6.50;;;;;;;11.68;100.00;101085.56;5042579;28;20036;-81
2022/10/26 05:52:43;;;;;;;19.08;6.40;;;;;;;11.68;100.00;101081.00;5035944;28;20087;-80
2022/10/26 05:55:11;;;;;;;12.65;5.63;;;;;;;11.70;100.00;101078.13;5035786;28;20051;-80
2022/10/26 05:57:37;;;;;;;12.52;5.55;;;;;;;11.74;100.00;101071.34;5032584;28;20018;-79
2022/10/26 06:00:25;;;;;;;20.35;6.57;;;;;;;11.73;100.00;101085.84;5033152;28;20025;-80
2022/10/26 06:03:12;;;;;;;14.40;5.65;;;;;;;11.74;100.00;101082.13;5023078;28;20040;-80
2022/10/26 06:05:58;;;;;;;23.90;6.60;;;;;;;11.76;100.00;101091.72;5033232;28;20555;-78
2022/10/26 06:08:26;;;;;;;14.23;6.32;;;;;;;11.75;100.00;101087.34;5031518;28;20061;-78
2022/10/26 06:10:53;;;;;;;13.98;5.57;;;;;;;11.71;100.00;101074.41;5033550;28;20042;-78
2022/10/26 06:13:20;;;;;;;20.45;6.38;;;;;;;11.70;100.00;101083.53;5021915;28;20028;-79
2022/10/26 06:16:28;;;;;;;24.10;5.53;;;;;;;11.73;100.00;101083.16;5044486;28;20045;-79
2022/10/26 06:19:18;;;;;;;16.30;5.30;;;;;;;11.71;100.00;101079.81;5043571;28;20029;-80
2022/10/26 06:22:15;;;;;;;15.10;5.97;;;;;;;11.67;100.00;101079.34;5035837;28;20637;-80
2022/10/26 06:25:01;;;;;;;16.75;5.57;;;;;;;11.62;100.00;101087.97;5018031;28;20109;-80
2022/10/26 06:27:54;;;;;;;22.83;5.97;;;;;;;11.58;100.00;101081.25;5029556;28;20022;-81
2022/10/26 06:30:22;;;;;;;11.52;5.32;;;;;;;11.57;100.00;101078.75;5006252;28;20037;-81
2022/10/26 06:32:47;;;;;;;24.00;6.55;;;;;;;11.57;100.00;101084.16;5012614;28;20021;-80
2022/10/26 06:35:47;;;;;;;15.05;5.85;;;;;;;11.59;100.00;101090.22;5031011;28;20021;-81
2022/10/26 06:38:18;;;;;;;15.63;5.72;;;;;;;11.60;100.00;101100.78;4998999;28;20037;-80
2022/10/26 06:40:45;;;;;;;20.35;6.25;;;;;;;11.62;100.00;101114.94;5035765;28;20021;-81
2022/10/26 06:43:21;;;;;;;8.70;5.20;;;;;;;11.63;100.00;101115.75;5031827;28;20056;-80
2022/10/26 06:45:53;;;;;;;19.77;5.35;;;;;;;11.68;100.00;101109.81;5010036;28;20014;-80
2022/10/26 06:48:22;;;;;;;22.50;5.97;;;;;;;11.68;100.00;101107.13;5039074;28;20144;-80
2022/10/26 06:50:51;;;;;;;13.77;4.72;;;;;;;11.69;100.00;101114.19;5037112;28;20592;-80
2022/10/26 06:53:20;;;;;;;14.55;4.95;;;;;;;11.72;100.00;101105.75;5034577;28;20151;-81
2022/10/26 06:55:48;;;;;;;16.40;4.97;;;;;;;11.75;100.00;101102.69;5033076;28;20078;-80
2022/10/26 06:58:18;;;;;;;13.65;5.43;;;;;;;11.78;100.00;101099.63;5027167;28;20041;-83
2022/10/26 07:00:46;;;;;;;10.20;5.03;;;;;;;11.77;100.00;101097.94;5027663;28;20028;-82
2022/10/26 07:03:11;;;;;;;20.88;5.45;;;;;;;11.77;100.00;101106.03;5027485;28;20029;-81
2022/10/26 07:05:36;;;;;;;24.45;5.80;;;;;;;11.81;100.00;101118.13;5025930;28;20032;-80
2022/10/26 07:08:02;;;;;;;18.85;5.85;;;;;;;11.89;100.00;101123.47;5024243;28;20056;-81
2022/10/26 07:10:27;;;;;;;13.70;5.38;;;;;;;11.93;100.00;101122.09;5019036;28;20433;-79
2022/10/26 07:12:52;;;;;;;26.52;5.28;;;;;;;11.97;100.00;101126.09;5026124;28;20108;-82
2022/10/26 07:15:18;;;;;;;13.55;5.10;;;;;;;12.08;100.00;101133.75;5027310;28;20030;-81
2022/10/26 07:17:48;;;;;;;11.05;4.82;;;;;;;12.18;100.00;101140.72;5032901;28;20079;-82
2022/10/26 07:20:14;;;;;;;15.63;4.88;;;;;;;12.36;100.00;101134.97;5028056;28;20032;-82
2022/10/26 07:22:41;;;;;;;19.13;5.40;;;;;;;12.44;100.00;101137.56;5029765;28;20030;-81
2022/10/26 07:25:07;;;;;;;16.40;5.40;;;;;;;12.50;100.00;101142.19;5034626;28;20060;-81
2022/10/26 07:27:32;;;;;;;12.82;4.72;;;;;;;12.57;100.00;101156.63;5044159;28;20030;-80
2022/10/26 07:30:01;;;;;;;11.32;4.72;;;;;;;12.73;100.00;101150.19;5042581;28;20034;-81
2022/10/26 07:32:26;;;;;;;17.27;4.85;;;;;;;13.05;100.00;101159.72;5044857;28;20025;-82
2022/10/26 07:34:52;;;;;;;22.27;6.03;;;;;;;13.31;100.00;101148.38;5034203;28;20017;-82
2022/10/26 07:37:17;;;;;;;14.32;4.47;;;;;;;13.75;100.00;101151.91;5024570;28;20029;-81
2022/10/26 07:39:42;;;;;;;14.70;4.88;;;;;;;14.16;100.00;101145.75;5040594;28;20009;-81
2022/10/26 07:42:08;;;;;;;11.73;4.20;;;;;;;14.46;100.00;101147.19;5027807;28;20018;-82
2022/10/26 07:44:34;;;;;;;9.38;4.22;;;;;;;14.83;100.00;101155.13;5039030;28;20077;-81
2022/10/26 07:46:59;;;;;;;9.60;4.00;;;;;;;15.42;98.50;101159.03;5043466;28;20029;-82
2022/10/26 07:49:25;;;;;;;15.35;4.18;;;;;;;16.02;94.65;101168.91;5035422;28;20009;-82
2022/10/26 07:51:50;;;;;;;14.52;3.90;;;;;;;16.32;91.41;101156.75;5040949;28;20030;-82
2022/10/26 07:54:15;;;;;;;12.90;3.55;;;;;;;16.87;87.88;101151.78;5038357;28;20092;-83
2022/10/26 07:56:41;;;;;;;12.32;3.33;;;;;;;17.75;84.45;101151.88;5035901;28;20034;-81
2022/10/26 07:59:06;;;;;;;18.75;3.33;;;;;;;17.96;82.71;101161.56;5039347;28;20025;-82
2022/10/26 08:01:34;;;;;;;12.65;4.00;;;;;;;18.10;80.32;101159.53;5041569;28;20033;-82
2022/10/26 08:03:59;;;;;;;9.00;3.28;;;;;;;19.12;77.68;101150.03;5032282;28;20018;-81
2022/10/26 08:06:25;;;;;;;8.85;2.95;;;;;;;19.03;73.88;101146.75;5036070;28;20032;-80
2022/10/26 08:08:50;;;;;;;12.48;3.10;;;;;;;18.83;76.93;101152.50;5038428;28;20113;-82
2022/10/26 08:11:16;;;;;;;7.40;3.05;;;;;;;18.78;75.93;101144.16;5033048;28;20033;-82
2022/10/26 08:13:42;;;;;;;13.40;3.13;;;;;;;18.72;76.54;101145.88;5036054;28;20034;-82
2022/10/26 08:16:07;;;;;;;14.00;3.63;;;;;;;19.37;74.04;101136.22;5042517;28;20502;-82
2022/10/26 08:18:33;;;;;;;11.85;3.05;;;;;;;19.60;71.84;101130.81;5032123;28;20116;-82
2022/10/26 08:21:08;;;;;;;10.05;3.08;;;;;;;19.99;70.34;101138.59;5035062;28;20037;-80
2022/10/26 08:23:33;;;;;;;9.10;2.80;;;;;;;20.21;71.19;101147.84;5023344;28;20049;-81
2022/10/26 08:25:59;;;;;;;9.10;2.88;;;;;;;19.19;71.83;101146.09;5030173;28;20033;-80
2022/10/26 08:28:26;;;;;;;11.63;2.90;;;;;;;19.11;75.05;101160.06;5018457;28;20029;-81
2022/10/26 08:30:51;;;;;;;12.02;2.88;;;;;;;19.59;73.75;101159.19;5023534;28;20048;-81
2022/10/26 08:33:16;;;;;;;15.00;2.53;;;;;;;20.18;72.10;101164.72;5025646;28;20473;-80
2022/10/26 08:35:42;;;;;;;12.60;3.17;;;;;;;20.20;71.42;101168.06;5020809;28;20448;-80
2022/10/26 08:38:07;;;;;;;7.60;2.65;;;;;;;19.86;71.17;101167.81;5026910;28;20103;-80
2022/10/26 08:40:36;;;;;;;6.57;2.60;;;;;;;19.74;70.27;101181.44;5018296;28;20356;-81
2022/10/26 08:43:35;;;;;;;6.50;2.15;;;;;;;19.14;73.75;101176.00;5019037;28;20033;-80
2022/10/26 08:46:16;;;;;;;11.40;2.85;;;;;;;18.95;74.03;101180.63;5020286;28;20033;-78
2022/10/26 08:48:49;;;;;;;8.63;2.80;;;;;;;18.67;75.69;101185.78;5025947;28;20466;-77
2022/10/26 08:51:24;;;;;;;12.50;3.50;;;;;;;18.07;79.50;101179.06;5034127;28;20106;-79
2022/10/26 08:53:57;;;;;;;7.88;3.03;;;;;;;17.74;81.59;101188.28;5014412;28;20041;-79
2022/10/26 08:56:26;;;;;;;7.07;2.92;;;;;;;17.92;82.63;101178.56;5046623;28;20027;-79
2022/10/26 08:58:55;;;;;;;6.80;2.67;;;;;;;17.59;84.11;101195.09;5039193;28;20037;-80
2022/10/26 09:01:21;;;;;;;12.32;2.90;;;;;;;17.24;85.64;101193.63;5022954;28;20104;-79
2022/10/26 09:03:46;;;;;;;19.08;3.20;;;;;;;17.55;86.44;101197.44;5040986;28;20089;-80
2022/10/26 09:06:19;;;;;;;6.85;2.75;;;;;;;17.60;86.04;101197.63;5050951;28;20109;-81
2022/10/26 09:08:50;;;;;;;9.90;2.58;;;;;;;17.73;86.31;101208.41;5049343;28;20059;-77
2022/10/26 09:11:25;;;;;;;10.25;3.42;;;;;;;17.72;86.05;101212.19;5045924;28;20033;-79
2022/10/26 09:14:10;;;;;;;10.38;2.95;;;;;;;17.48;86.57;101218.41;5035986;28;20080;-76
2022/10/26 09:16:56;;;;;;;6.50;2.33;;;;;;;17.30;88.42;101205.56;5031022;28;20088;-75
2022/10/26 09:19:57;;;;;;;8.93;3.13;;;;;;;17.06;89.66;101207.13;5030995;28;20120;-76
2022/10/26 09:22:37;;;;;;;10.50;3.33;;;;;;;17.03;91.20;101207.56;5031234;28;20495;-75
2022/10/26 09:25:16;;;;;;;11.90;3.70;;;;;;;17.10;91.58;101214.63;5031781;28;20021;-75
2022/10/26 09:27:44;;;;;;;16.20;3.17;;;;;;;17.32;91.00;101227.91;5036247;28;20359;-74
2022/10/26 09:30:13;;;;;;;;;;;;;;;17.58;90.04;101221.50;5034132;28;20079;-75
2022/10/26 09:32:44;;;;;;;11.02;2.85;;;;;;;17.68;88.48;101221.03;5037005;28;20357;-76
2022/10/26 09:35:16;;;;;;;14.50;3.40;;;;;;;17.63;89.45;101224.38;5038208;28;20033;-75
2022/10/26 09:37:51;;;;;;;6.40;2.80;;;;;;;17.68;89.77;101238.19;5062036;28;20404;-75
2022/10/26 09:40:19;;;;;;;8.07;3.22;;;;;;;17.68;89.72;101243.63;5046361;28;20040;-79
2022/10/26 09:42:46;;;;;;;;;;;;;;;17.80;89.62;101249.25;5050314;28;20037;-80
2022/10/26 09:45:19;;;;;;;10.93;2.95;;;;;;;17.64;90.24;101241.56;5054486;28;19908;-82
2022/10/26 09:47:49;;;;;;;15.60;3.50;;;;;;;17.70;90.88;101244.25;5054825;28;20029;-76
2022/10/26 09:50:25;;;;;;;8.70;2.78;;;;;;;17.73;90.23;101251.13;5069487;28;20053;-79
2022/10/26 09:52:50;;;;;;;13.18;3.35;;;;;;;17.61;90.64;101248.25;5051606;28;20102;-81
2022/10/26 09:55:16;;;;;;;10.70;3.03;;;;;;;17.63;91.53;101262.50;5053567;28;20022;-81
2022/10/26 09:57:44;;;;;;;9.57;2.83;;;;;;;17.68;91.37;101265.41;5055386;28;20018;-81
2022/10/26 10:00:18;;;;;;;11.43;3.20;;;;;;;17.51;92.07;101265.09;5052358;28;20030;-80
2022/10/26 10:02:45;;;;;;;21.10;3.17;;;;;;;17.31;92.74;101270.63;5049820;28;20116;-82
2022/10/26 10:05:33;;;;;;;21.85;3.08;;;;;;;17.01;94.33;101283.94;5038660;28;20061;-81
2022/10/26 10:08:26;;;;;;;10.45;3.00;;;;;;;17.07;95.45;101291.22;5052784;28;20071;-81
2022/10/26 10:10:55;;;;;;;14.23;3.05;;;;;;;16.99;96.31;101293.34;5048249;28;20093;-81
2022/10/26 10:13:22;;;;;;;19.23;3.08;;;;;;;16.88;97.71;101306.53;5053901;28;20048;-81
2022/10/26 10:15:53;;;;;;;17.33;3.40;;;;;;;16.81;98.70;101313.88;5055933;28;20034;-78
2022/10/26 10:18:22;;;;;;;11.85;3.13;;;;;;;16.84;99.01;101308.00;5067028;28;20275;-81
2022/10/26 10:20:55;;;;;;;15.55;2.75;;;;;;;16.81;99.33;101313.03;5047196;28;20040;-79
2022/10/26 10:23:46;;;;;;;8.80;3.08;;;;;;;16.85;99.98;101315.13;5049960;28;20040;-80
2022/10/26 10:26:12;;;;;;;12.90;3.08;;;;;;;16.78;100.00;101317.00;5049111;28;20045;-82
2022/10/26 10:28:40;;;;;;;17.60;3.30;;;;;;;16.86;100.00;101311.34;5044149;28;20301;-81
2022/10/26 10:31:19;;;;;;;11.13;3.45;;;;;;;16.94;99.59;101323.06;5046611;28;20036;-82
2022/10/26 10:33:45;;;;;;;10.55;3.03;;;;;;;17.00;99.25;101317.59;5040309;28;20014;-81
2022/10/26 10:36:15;;;;;;;10.20;3.08;;;;;;;17.14;98.77;101318.41;5052928;28;20107;-81
2022/10/26 10:38:42;;;;;;;10.32;2.72;;;;;;;17.29;98.72;101327.13;5035394;28;20044;-82
2022/10/26 10:41:30;;;;;;;12.93;2.80;;;;;;;17.63;96.79;101330.53;5036408;28;20048;-81
2022/10/26 10:44:04;;;;;;;9.23;2.67;;;;;;;17.74;94.82;101323.56;5052460;28;20045;-78
2022/10/26 10:46:29;;;;;;;11.70;2.80;;;;;;;17.96;94.84;101315.97;5055221;28;20084;-80
2022/10/26 10:49:02;;;;;;;9.02;2.90;;;;;;;18.10;93.37;101328.44;5051218;28;20085;-78
2022/10/26 10:51:30;;;;;;;14.60;3.00;;;;;;;17.98;92.94;101336.47;5051320;28;20013;-78
2022/10/26 10:53:55;;;;;;;16.92;2.70;;;;;;;17.94;93.08;101339.84;5036894;28;20010;-80
2022/10/26 10:56:31;;;;;;;18.38;4.00;;;;;;;17.77;93.93;101351.22;5050151;28;20048;-80
2022/10/26 10:59:12;;;;;;;11.48;2.58;;;;;;;17.90;94.03;101349.50;5055305;28;20072;-80
2022/10/26 11:01:40;;;;;;;11.45;3.25;;;;;;;18.05;93.78;101344.59;5057182;28;20032;-81
2022/10/26 11:04:24;;;;;;;8.77;2.65;;;;;;;18.32;92.31;101347.13;5054492;28;20014;-82
2022/10/26 11:06:51;;;;;;;13.73;2.80;;;;;;;18.59;92.73;101350.50;5050441;28;20041;-80
2022/10/26 11:09:22;;;;;;;12.60;3.55;;;;;;;18.46;91.38;101354.16;5051607;28;20051;-80
2022/10/26 11:11:57;;;;;;;12.32;3.05;;;;;;;18.15;91.05;101364.00;5041737;28;20083;-80
2022/10/26 11:14:32;;;;;;;9.60;3.08;;;;;;;18.15;92.70;101368.63;5040619;28;20112;-80
2022/10/26 11:17:05;;;;;;;14.85;3.15;;;;;;;18.25;92.85;101358.09;5037670;28;20025;-78
2022/10/26 11:19:42;;;;;;;8.80;3.15;;;;;;;18.32;91.41;101361.59;5038136;28;20033;-81
2022/10/26 11:22:13;;;;;;;15.88;3.60;;;;;;;18.70;91.14;101357.13;5041681;28;20099;-80
2022/10/26 11:24:49;;;;;;;15.32;3.08;;;;;;;18.90;89.53;101368.69;5044875;28;20057;-81